Terminal Aerodrome Forecast
Issued by NWS

Home | Current Version | Previous Version | Graphics & Text | Print | Product List | Glossary On
Versions: 1 2 3 4 5 6 7 8 9 10 11 12 13 14 15 16
000
FTUS43 KABR 190400 AAA
TAFATY
TAF AMD
KATY 190415Z 1904/1924 17009KT P6SM SCT250
     FM190700 20011KT P6SM BKN250
     FM191700 29009KT P6SM BKN250=

USA.gov is the U.S. government's official web portal to all federal, state and local government web resources and services.